Time;durP1;ratioP1;P1;durP2;ratioP2;P2;SDS_P1;SDS_P2;PMS_P1;PMS_P2;Temp;Humidity;BMP_temperature;BMP_pressure;BME280_temperature;BME280_humidity;BME280_pressure;Samples;Min_cycle;Max_cycle;Signal;HPM_P1;HPM_P2
2024/03/13 00:02:19;;;;;;;6.20;5.60;;;9.20;99.90;;;;;;5094260;28;20403;-70
2024/03/13 00:04:45;;;;;;;7.07;5.60;;;9.20;99.90;;;;;;5093824;28;20529;-70
2024/03/13 00:07:11;;;;;;;6.80;6.10;;;9.10;99.90;;;;;;5094199;28;20167;-69
2024/03/13 00:09:45;;;;;;;5.90;5.20;;;9.00;99.90;;;;;;5093771;28;20193;-69
2024/03/13 00:12:14;;;;;;;7.10;5.40;;;8.90;99.90;;;;;;5093876;28;20380;-69
2024/03/13 00:14:41;;;;;;;8.30;5.80;;;8.90;99.90;;;;;;5093784;28;20408;-71
2024/03/13 00:17:06;;;;;;;6.50;4.30;;;9.00;99.90;;;;;;5093974;28;20400;-70
2024/03/13 00:19:35;;;;;;;6.33;4.70;;;9.20;99.90;;;;;;5093530;28;20952;-70
2024/03/13 00:22:01;;;;;;;5.83;4.10;;;9.20;99.90;;;;;;5093633;28;20641;-70
2024/03/13 00:24:27;;;;;;;5.57;4.80;;;9.30;99.90;;;;;;5093788;28;20449;-70
2024/03/13 00:26:56;;;;;;;5.00;3.97;;;9.10;99.90;;;;;;5093783;28;20167;-70
2024/03/13 00:29:22;;;;;;;6.37;4.50;;;9.10;99.90;;;;;;5093655;28;20516;-71
2024/03/13 00:31:48;;;;;;;5.50;4.20;;;9.00;99.90;;;;;;5093474;28;20433;-69
2024/03/13 00:34:14;;;;;;;4.13;3.47;;;9.00;99.90;;;;;;5093453;28;20486;-69
2024/03/13 00:36:39;;;;;;;4.30;2.63;;;8.90;99.90;;;;;;5093089;28;20174;-70
2024/03/13 00:39:05;;;;;;;3.20;2.70;;;8.90;99.90;;;;;;5093428;28;20417;-70
2024/03/13 00:41:30;;;;;;;5.67;3.13;;;9.00;99.90;;;;;;5083054;28;20546;-69
2024/03/13 00:43:56;;;;;;;3.23;2.93;;;9.00;99.90;;;;;;5093270;28;20203;-69
2024/03/13 00:46:24;;;;;;;3.70;2.87;;;8.90;99.90;;;;;;5093285;28;20170;-69
2024/03/13 00:48:50;;;;;;;5.20;3.70;;;8.80;99.90;;;;;;5093362;28;20171;-69
2024/03/13 00:51:15;;;;;;;6.80;3.43;;;8.70;99.90;;;;;;5093399;28;20446;-69
2024/03/13 00:53:41;;;;;;;4.40;3.47;;;8.80;99.90;;;;;;5093484;28;20607;-70
2024/03/13 00:56:06;;;;;;;6.20;3.17;;;8.80;99.90;;;;;;5093713;28;20207;-70
2024/03/13 00:58:34;;;;;;;4.73;3.30;;;8.60;99.90;;;;;;5093588;28;20165;-70
2024/03/13 01:00:59;;;;;;;8.53;2.90;;;8.60;99.90;;;;;;5093168;28;20188;-70
2024/03/13 01:03:25;;;;;;;6.33;3.53;;;8.40;99.90;;;;;;5093068;28;20481;-70
2024/03/13 01:05:51;;;;;;;3.40;3.10;;;8.30;99.90;;;;;;5093117;28;20647;-70
2024/03/13 01:08:17;;;;;;;2.93;2.63;;;8.40;99.90;;;;;;5093350;28;20414;-70
2024/03/13 01:10:43;;;;;;;3.90;2.83;;;8.40;99.90;;;;;;5093190;28;20273;-70
2024/03/13 01:13:10;;;;;;;3.17;2.67;;;8.60;99.90;;;;;;5092964;28;20167;-70
2024/03/13 01:15:36;;;;;;;2.40;2.07;;;8.50;99.90;;;;;;5093307;28;20770;-70
2024/03/13 01:18:02;;;;;;;2.43;2.20;;;8.50;99.90;;;;;;5093146;28;20409;-69
2024/03/13 01:20:28;;;;;;;7.20;2.60;;;8.50;99.90;;;;;;5093079;28;20192;-70
2024/03/13 01:22:56;;;;;;;2.43;1.87;;;8.40;99.90;;;;;;5093188;28;20438;-70
2024/03/13 01:25:22;;;;;;;2.40;2.20;;;8.40;99.90;;;;;;5093047;28;20459;-70
2024/03/13 01:27:48;;;;;;;2.40;2.20;;;8.40;99.90;;;;;;5092829;28;20414;-70
2024/03/13 01:30:14;;;;;;;1.70;1.60;;;8.50;99.90;;;;;;5092909;28;20484;-70
2024/03/13 01:32:43;;;;;;;3.47;2.00;;;8.50;99.90;;;;;;5093270;28;20408;-69
2024/03/13 01:35:12;;;;;;;2.63;1.97;;;8.50;99.90;;;;;;5092763;28;20424;-70
2024/03/13 01:37:56;;;;;;;2.10;1.90;;;8.50;99.90;;;;;;5093049;28;20407;-70
2024/03/13 01:40:26;;;;;;;1.83;1.20;;;8.40;99.90;;;;;;5093367;28;20462;-70
2024/03/13 01:56:59;;;;;;;2.20;1.37;;;8.20;99.90;;;;;;5097158;28;20793;-69
2024/03/13 01:59:35;;;;;;;1.90;1.20;;;8.30;99.90;;;;;;5096199;28;20423;-70
2024/03/13 02:02:24;;;;;;;1.77;1.37;;;8.30;99.90;;;;;;5097027;28;20391;-70
2024/03/13 02:04:51;;;;;;;1.20;1.07;;;8.40;99.90;;;;;;5096713;28;20450;-69
2024/03/13 02:07:24;;;;;;;2.90;1.33;;;8.30;99.90;;;;;;5097002;28;20411;-70
2024/03/13 02:09:50;;;;;;;1.27;1.13;;;8.40;99.90;;;;;;5096128;28;20434;-70
2024/03/13 02:12:17;;;;;;;3.60;1.30;;;8.40;99.90;;;;;;5096585;28;20439;-70
2024/03/13 02:14:43;;;;;;;1.30;1.20;;;8.50;99.90;;;;;;5096378;28;20784;-70
2024/03/13 02:17:10;;;;;;;1.90;1.30;;;8.50;99.90;;;;;;5096480;28;20502;-70
2024/03/13 02:19:39;;;;;;;2.20;1.43;;;8.60;99.90;;;;;;5096148;28;20243;-70
2024/03/13 02:22:06;;;;;;;1.40;1.17;;;8.70;99.90;;;;;;5096313;28;20416;-70
2024/03/13 02:24:35;;;;;;;1.53;1.30;;;8.90;99.90;;;;;;5077606;28;20492;-71
2024/03/13 02:27:09;;;;;;;5.73;1.40;;;8.90;99.90;;;;;;5096111;28;20410;-70
2024/03/13 02:29:34;;;;;;;1.80;1.03;;;8.90;99.90;;;;;;5095957;28;20526;-70
2024/03/13 02:32:00;;;;;;;1.43;0.90;;;8.80;99.90;;;;;;5095777;28;20497;-70
2024/03/13 02:34:26;;;;;;;1.30;1.00;;;8.60;99.90;;;;;;5096031;28;20180;-70
2024/03/13 02:36:54;;;;;;;3.57;1.00;;;8.40;99.90;;;;;;5095687;28;20458;-70
2024/03/13 02:39:20;;;;;;;1.47;0.90;;;8.40;99.90;;;;;;5095352;28;20202;-70
2024/03/13 02:41:46;;;;;;;1.27;0.90;;;8.10;99.90;;;;;;5095210;28;20477;-69
2024/03/13 02:44:11;;;;;;;0.90;0.80;;;8.30;99.90;;;;;;5095601;28;20207;-70
2024/03/13 02:46:37;;;;;;;1.70;0.60;;;8.50;99.90;;;;;;5096075;28;20177;-70
2024/03/13 02:49:03;;;;;;;1.10;0.90;;;8.70;99.90;;;;;;5095554;28;20218;-70
2024/03/13 02:51:30;;;;;;;0.90;0.63;;;8.50;99.90;;;;;;5095516;28;20775;-70
2024/03/13 02:53:55;;;;;;;2.40;1.13;;;8.60;99.90;;;;;;5095601;28;20426;-70
2024/03/13 02:56:21;;;;;;;1.30;0.97;;;8.60;99.90;;;;;;5095230;28;20414;-70
2024/03/13 02:58:48;;;;;;;1.20;0.80;;;8.60;99.90;;;;;;5095102;28;20556;-70
2024/03/13 03:01:14;;;;;;;1.20;0.87;;;8.60;99.90;;;;;;5095215;28;20201;-70
2024/03/13 03:03:40;;;;;;;1.00;0.90;;;8.40;99.90;;;;;;5095366;28;20447;-70
2024/03/13 03:06:06;;;;;;;1.57;1.10;;;8.40;99.90;;;;;;5095195;28;20994;-69
2024/03/13 03:08:35;;;;;;;1.13;0.87;;;8.40;99.90;;;;;;5095261;28;20195;-69
2024/03/13 03:11:03;;;;;;;3.13;0.80;;;8.30;99.90;;;;;;5095217;28;20430;-70
2024/03/13 03:13:29;;;;;;;1.30;0.90;;;8.40;99.90;;;;;;5094996;28;20772;-69
2024/03/13 03:15:54;;;;;;;1.40;1.00;;;8.40;99.90;;;;;;5094901;28;20457;-70
2024/03/13 03:18:20;;;;;;;1.20;0.97;;;8.50;99.90;;;;;;5095034;28;20419;-70
2024/03/13 03:20:46;;;;;;;1.23;1.00;;;8.60;99.90;;;;;;5095009;28;20207;-70
2024/03/13 03:23:12;;;;;;;1.27;1.17;;;8.60;99.90;;;;;;5093338;28;20423;-70
2024/03/13 03:25:37;;;;;;;1.10;1.00;;;8.60;99.90;;;;;;5094752;28;20255;-69
2024/03/13 03:28:03;;;;;;;1.40;1.23;;;8.60;99.90;;;;;;5094957;28;20294;-69
2024/03/13 03:30:32;;;;;;;1.83;1.37;;;8.50;99.90;;;;;;5094847;28;20242;-69
2024/03/13 03:33:00;;;;;;;1.53;1.23;;;8.40;99.90;;;;;;5076484;28;20445;-70
2024/03/13 03:35:27;;;;;;;2.77;1.03;;;8.10;99.90;;;;;;5094466;28;20403;-70
2024/03/13 03:37:53;;;;;;;2.10;1.30;;;8.30;99.90;;;;;;5094560;28;20499;-70
2024/03/13 03:40:19;;;;;;;1.50;1.07;;;8.40;99.90;;;;;;5094260;28;20812;-69
2024/03/13 03:42:46;;;;;;;2.23;1.40;;;8.30;99.90;;;;;;5094361;28;20196;-70
2024/03/13 03:45:12;;;;;;;1.20;1.10;;;8.20;99.90;;;;;;5094485;28;20283;-70
2024/03/13 03:47:38;;;;;;;1.30;1.20;;;8.30;99.90;;;;;;5089748;28;20518;-69
2024/03/13 03:50:07;;;;;;;2.00;1.90;;;8.00;99.90;;;;;;5094389;28;20272;-70
2024/03/13 03:52:33;;;;;;;1.20;1.07;;;8.00;99.90;;;;;;5094443;28;20178;-69
2024/03/13 03:54:58;;;;;;;1.30;1.20;;;8.10;99.90;;;;;;5094586;28;20900;-70
2024/03/13 03:57:24;;;;;;;1.20;1.10;;;8.30;99.90;;;;;;5093831;28;20425;-70
2024/03/13 03:59:50;;;;;;;1.20;1.10;;;8.30;99.90;;;;;;5093671;28;20195;-70
2024/03/13 04:02:19;;;;;;;1.20;1.10;;;8.20;99.90;;;;;;5094698;28;20421;-69
2024/03/13 04:04:45;;;;;;;1.30;1.07;;;8.20;99.90;;;;;;5094228;28;20586;-69
2024/03/13 04:07:11;;;;;;;1.70;1.40;;;8.20;99.90;;;;;;5093989;28;20407;-69
2024/03/13 04:09:37;;;;;;;1.30;1.20;;;8.30;99.90;;;;;;5094070;28;20192;-69
2024/03/13 04:12:02;;;;;;;1.37;1.27;;;8.30;99.90;;;;;;5093292;28;20395;-69
2024/03/13 04:14:28;;;;;;;1.97;1.40;;;8.40;99.90;;;;;;5094179;28;20418;-69
2024/03/13 04:16:54;;;;;;;1.20;0.87;;;8.30;99.90;;;;;;5093928;28;20165;-70
2024/03/13 04:19:21;;;;;;;1.33;1.23;;;8.30;99.90;;;;;;5094057;28;20643;-69
2024/03/13 04:21:47;;;;;;;1.53;1.43;;;8.30;99.90;;;;;;5094133;28;20416;-69
2024/03/13 04:24:13;;;;;;;1.50;1.30;;;8.20;99.90;;;;;;5093959;28;20472;-70
2024/03/13 04:26:39;;;;;;;1.83;1.13;;;8.40;99.90;;;;;;5094294;28;20894;-70
2024/03/13 04:29:05;;;;;;;1.97;1.20;;;8.60;99.90;;;;;;5093630;28;20168;-70
2024/03/13 04:31:32;;;;;;;2.70;1.10;;;8.60;99.90;;;;;;5093898;28;20410;-69
2024/03/13 04:33:58;;;;;;;1.40;1.20;;;8.70;99.90;;;;;;5094416;28;20177;-70
2024/03/13 04:36:24;;;;;;;1.57;1.47;;;8.50;99.90;;;;;;5094953;28;20414;-70
2024/03/13 04:38:53;;;;;;;3.20;1.90;;;8.60;99.90;;;;;;5097074;28;20419;-70
2024/03/13 04:41:18;;;;;;;1.60;1.50;;;8.50;99.90;;;;;;5099746;28;20219;-70
2024/03/13 04:43:45;;;;;;;2.00;1.60;;;8.40;99.90;;;;;;5100803;28;20809;-70
2024/03/13 04:46:17;;;;;;;1.73;1.63;;;8.50;99.90;;;;;;5099076;28;20180;-70
2024/03/13 04:48:46;;;;;;;1.43;1.33;;;8.70;99.90;;;;;;5078518;28;20935;-69
2024/03/13 04:51:14;;;;;;;2.17;1.97;;;8.50;99.90;;;;;;5093322;28;20588;-70
2024/03/13 04:53:39;;;;;;;1.63;1.53;;;8.60;99.90;;;;;;5094279;28;20774;-70
2024/03/13 04:56:06;;;;;;;1.70;1.60;;;8.60;99.90;;;;;;5075410;28;20421;-69
2024/03/13 04:58:33;;;;;;;2.10;1.57;;;8.80;99.90;;;;;;5093577;28;20266;-70
2024/03/13 05:00:59;;;;;;;3.53;1.80;;;8.90;99.90;;;;;;5093467;28;21003;-70
2024/03/13 05:03:24;;;;;;;1.50;1.40;;;8.70;99.90;;;;;;5094364;28;20434;-70
2024/03/13 05:05:50;;;;;;;2.47;2.00;;;8.70;99.90;;;;;;5094386;28;20162;-70
2024/03/13 05:08:16;;;;;;;2.30;2.10;;;8.80;99.90;;;;;;5093855;28;20175;-70
2024/03/13 05:10:42;;;;;;;1.73;1.60;;;8.90;99.90;;;;;;5094097;28;20660;-70
2024/03/13 05:13:08;;;;;;;2.47;2.27;;;9.10;99.90;;;;;;5094095;28;20414;-70
2024/03/13 05:15:34;;;;;;;2.50;2.30;;;9.10;99.90;;;;;;5094735;28;20400;-70
2024/03/13 05:17:59;;;;;;;2.13;1.93;;;9.10;99.90;;;;;;5093906;28;20169;-70
2024/03/13 05:20:27;;;;;;;2.17;1.97;;;9.00;99.90;;;;;;5094096;28;20219;-70
2024/03/13 05:22:53;;;;;;;3.20;2.77;;;8.90;99.90;;;;;;5095178;28;20175;-70
2024/03/13 05:25:22;;;;;;;2.33;2.13;;;9.00;99.90;;;;;;5097892;28;20507;-70
2024/03/13 05:27:49;;;;;;;2.70;2.50;;;9.00;99.90;;;;;;5098205;28;20180;-70
2024/03/13 05:30:17;;;;;;;2.33;2.17;;;8.90;99.90;;;;;;5097947;28;21081;-70
2024/03/13 05:32:43;;;;;;;2.40;2.20;;;8.90;99.90;;;;;;5097895;28;20501;-70
2024/03/13 05:35:09;;;;;;;2.97;2.70;;;8.90;99.90;;;;;;5098283;28;20399;-70
2024/03/13 05:37:35;;;;;;;2.77;2.57;;;9.00;99.90;;;;;;5098069;28;20403;-70
2024/03/13 05:40:07;;;;;;;3.13;2.90;;;9.00;99.90;;;;;;5097980;28;20831;-70
2024/03/13 05:42:32;;;;;;;2.80;2.60;;;9.10;99.90;;;;;;5098443;28;20158;-70
2024/03/13 05:44:58;;;;;;;2.60;2.40;;;9.10;99.90;;;;;;5097631;28;20448;-70
2024/03/13 05:47:24;;;;;;;3.60;3.30;;;9.20;99.90;;;;;;5097853;28;20172;-70
2024/03/13 05:49:49;;;;;;;2.83;2.63;;;9.20;99.90;;;;;;5098080;28;20205;-70
2024/03/13 05:52:15;;;;;;;2.40;2.20;;;9.20;99.90;;;;;;5089476;28;20419;-71
2024/03/13 05:54:40;;;;;;;3.53;3.23;;;9.30;99.90;;;;;;5087222;28;20197;-71
2024/03/13 05:57:06;;;;;;;2.73;2.53;;;9.20;99.90;;;;;;5096685;28;20188;-70
2024/03/13 05:59:32;;;;;;;3.10;2.83;;;9.20;99.90;;;;;;5096404;28;20193;-69
2024/03/13 06:01:57;;;;;;;2.43;2.33;;;9.20;99.90;;;;;;5096687;28;20484;-70
2024/03/13 06:04:23;;;;;;;3.37;3.07;;;9.30;99.90;;;;;;5096356;28;20195;-69
2024/03/13 06:06:49;;;;;;;2.70;2.50;;;9.20;99.90;;;;;;5096822;28;20174;-70
2024/03/13 06:09:16;;;;;;;3.00;2.80;;;9.10;99.90;;;;;;5096139;28;20169;-70
2024/03/13 06:11:41;;;;;;;4.57;3.80;;;9.10;99.90;;;;;;5096288;28;20604;-70
2024/03/13 06:14:07;;;;;;;3.53;3.23;;;9.10;99.90;;;;;;5096163;28;20409;-70
2024/03/13 06:16:33;;;;;;;4.13;3.73;;;9.10;99.90;;;;;;5096447;28;20598;-70
2024/03/13 06:18:58;;;;;;;3.33;3.03;;;9.00;99.90;;;;;;5095866;28;20222;-70
2024/03/13 06:21:24;;;;;;;4.93;4.30;;;9.10;99.90;;;;;;5097524;28;20180;-70
2024/03/13 06:23:52;;;;;;;4.47;4.07;;;9.20;99.90;;;;;;5096281;28;20594;-70
2024/03/13 06:26:18;;;;;;;5.00;4.50;;;9.30;99.90;;;;;;5096078;28;20168;-70
2024/03/13 06:31:29;;;;;;;4.77;4.33;;;9.30;99.90;;;;;;5096464;28;20388;-70
2024/03/13 06:33:54;;;;;;;4.17;3.87;;;9.40;99.90;;;;;;5095611;28;20496;-69
2024/03/13 06:36:20;;;;;;;4.73;4.33;;;9.50;99.90;;;;;;5093888;28;20599;-70
2024/03/13 06:38:46;;;;;;;4.20;3.80;;;9.50;99.90;;;;;;5095486;28;20668;-70
2024/03/13 06:41:12;;;;;;;4.10;3.70;;;9.40;99.90;;;;;;5095617;28;20197;-70
2024/03/13 06:43:38;;;;;;;4.50;4.10;;;9.40;99.90;;;;;;5096466;28;20482;-70
2024/03/13 06:46:06;;;;;;;4.50;4.10;;;9.50;99.90;;;;;;5095866;28;20424;-69
2024/03/13 06:48:32;;;;;;;5.93;5.33;;;9.60;99.90;;;;;;5095447;28;20250;-69
2024/03/13 06:50:58;;;;;;;4.33;4.03;;;9.60;99.90;;;;;;5095181;28;20430;-71
2024/03/13 06:53:24;;;;;;;5.00;4.50;;;9.60;99.90;;;;;;5095326;28;20900;-69
2024/03/13 06:55:49;;;;;;;5.57;4.30;;;9.70;99.90;;;;;;5095353;28;20175;-70
2024/03/13 06:58:15;;;;;;;5.00;4.50;;;9.80;99.90;;;;;;5095578;28;20405;-70
2024/03/13 07:00:41;;;;;;;3.77;3.40;;;9.90;99.90;;;;;;5095814;28;20533;-71
2024/03/13 07:03:07;;;;;;;4.80;4.40;;;9.80;99.90;;;;;;5077171;28;20172;-70
2024/03/13 07:05:32;;;;;;;4.97;4.47;;;9.90;99.90;;;;;;5095505;28;20235;-70
2024/03/13 07:07:58;;;;;;;4.77;4.37;;;10.10;99.90;;;;;;5095042;28;20404;-70
2024/03/13 07:10:24;;;;;;;4.13;3.83;;;10.10;99.90;;;;;;5095091;28;20635;-70
2024/03/13 07:12:49;;;;;;;3.53;3.23;;;10.10;99.90;;;;;;5095268;28;20244;-70
2024/03/13 07:15:15;;;;;;;3.80;3.50;;;10.20;99.90;;;;;;5094922;28;20514;-70
2024/03/13 07:17:42;;;;;;;4.70;4.20;;;10.20;99.90;;;;;;5095069;28;20173;-70
2024/03/13 07:20:11;;;;;;;3.60;3.30;;;10.30;99.90;;;;;;5094740;28;20503;-70
2024/03/13 07:22:38;;;;;;;4.27;3.77;;;10.40;99.90;;;;;;5095014;28;20437;-70
2024/03/13 07:25:09;;;;;;;4.20;3.80;;;10.40;99.90;;;;;;5094573;28;20443;-70
2024/03/13 07:27:35;;;;;;;4.20;3.90;;;10.20;99.90;;;;;;5094739;28;20471;-70
2024/03/13 07:30:01;;;;;;;4.60;4.10;;;10.30;99.90;;;;;;5094704;28;20421;-70
2024/03/13 07:32:27;;;;;;;3.90;3.50;;;10.40;99.90;;;;;;5094652;28;20410;-70
2024/03/13 07:34:52;;;;;;;3.13;2.93;;;10.40;99.90;;;;;;5095011;28;20179;-70
2024/03/13 07:37:18;;;;;;;3.40;3.10;;;10.50;99.90;;;;;;5094236;28;20170;-70
2024/03/13 07:39:44;;;;;;;4.40;4.03;;;10.50;99.90;;;;;;5095121;28;20617;-70
2024/03/13 07:42:10;;;;;;;2.97;2.77;;;10.50;99.90;;;;;;5094710;28;20238;-69
2024/03/13 07:44:35;;;;;;;3.13;2.93;;;10.60;99.90;;;;;;5094498;28;20455;-70
2024/03/13 07:47:01;;;;;;;3.20;2.70;;;10.60;99.90;;;;;;5093981;28;20167;-70
2024/03/13 07:49:28;;;;;;;3.13;2.83;;;10.60;99.90;;;;;;5093791;28;20199;-70
2024/03/13 07:51:58;;;;;;;4.30;2.70;;;10.70;99.90;;;;;;5094711;28;20177;-69
2024/03/13 07:54:23;;;;;;;2.73;2.53;;;10.70;99.90;;;;;;5094029;28;20448;-69
2024/03/13 07:56:52;;;;;;;3.67;3.37;;;10.70;99.90;;;;;;5092891;28;20408;-69
2024/03/13 07:59:17;;;;;;;3.17;2.97;;;10.60;99.90;;;;;;5092925;28;20177;-69
2024/03/13 08:01:45;;;;;;;3.00;2.80;;;10.70;99.90;;;;;;5107455;22;20787;-72
2024/03/13 08:04:11;;;;;;;2.50;2.30;;;10.90;99.90;;;;;;5092183;28;20189;-72
2024/03/13 08:06:38;;;;;;;3.20;3.00;;;11.00;99.90;;;;;;5092254;28;20396;-73
2024/03/13 08:09:04;;;;;;;2.70;2.50;;;10.90;99.90;;;;;;5092541;28;20169;-72
2024/03/13 08:11:31;;;;;;;3.17;2.88;;;11.00;99.90;;;;;;5091785;28;20487;-70
2024/03/13 08:13:58;;;;;;;3.40;3.10;;;11.30;99.90;;;;;;5093881;28;20175;-71
2024/03/13 08:16:24;;;;;;;3.53;3.30;;;11.20;99.90;;;;;;5093656;28;20924;-71
2024/03/13 08:18:51;;;;;;;3.60;3.30;;;11.00;99.90;;;;;;5075710;28;20408;-70
2024/03/13 08:21:16;;;;;;;3.30;3.07;;;11.00;99.90;;;;;;5093266;28;20427;-70
2024/03/13 08:23:44;;;;;;;4.30;4.00;;;11.10;99.90;;;;;;5093702;28;20984;-70
2024/03/13 08:26:13;;;;;;;4.20;3.90;;;11.20;99.90;;;;;;5093768;28;20709;-71
2024/03/13 08:28:40;;;;;;;4.50;4.10;;;11.20;99.90;;;;;;5093683;28;20694;-71
2024/03/13 08:31:06;;;;;;;5.20;4.80;;;11.30;99.90;;;;;;5089440;28;20808;-71
2024/03/13 08:33:32;;;;;;;4.77;4.33;;;11.30;99.90;;;;;;5093616;28;20407;-70
2024/03/13 08:36:01;;;;;;;4.37;3.97;;;11.30;99.90;;;;;;5093552;28;20399;-71
2024/03/13 08:38:27;;;;;;;4.03;3.73;;;11.30;99.90;;;;;;5093316;28;20407;-71
2024/03/13 08:40:54;;;;;;;4.20;3.90;;;11.40;99.90;;;;;;5093020;28;20499;-73
2024/03/13 08:43:20;;;;;;;3.93;3.63;;;11.60;99.90;;;;;;5093926;28;20479;-71
2024/03/13 08:45:46;;;;;;;5.50;4.33;;;11.80;99.90;;;;;;5093313;28;20408;-73
2024/03/13 08:48:11;;;;;;;4.80;4.40;;;12.00;99.90;;;;;;5093356;28;20404;-73
2024/03/13 08:50:38;;;;;;;3.70;3.40;;;12.10;99.90;;;;;;5093159;28;20422;-73
2024/03/13 08:53:04;;;;;;;3.93;3.57;;;12.30;99.90;;;;;;5092997;28;20168;-73
2024/03/13 08:55:34;;;;;;;4.70;3.00;;;12.50;99.90;;;;;;5093366;28;20448;-74
2024/03/13 08:58:02;;;;;;;2.80;2.60;;;12.50;99.90;;;;;;5092373;28;20403;-73
2024/03/13 09:00:27;;;;;;;3.10;2.50;;;12.30;99.90;;;;;;5091865;28;20409;-73
2024/03/13 09:02:56;;;;;;;2.40;2.20;;;12.60;99.90;;;;;;5093297;28;20253;-75
2024/03/13 09:05:22;;;;;;;4.13;2.80;;;12.70;99.90;;;;;;5093502;28;20211;-73
2024/03/13 09:07:48;;;;;;;2.60;2.40;;;12.60;99.90;;;;;;5092399;28;20392;-71
2024/03/13 09:10:16;;;;;;;2.90;2.23;;;13.00;99.90;;;;;;5093023;28;20412;-73
2024/03/13 09:12:42;;;;;;;2.77;2.00;;;12.80;99.90;;;;;;5093089;28;20176;-70
2024/03/13 09:15:09;;;;;;;1.97;1.87;;;12.70;99.90;;;;;;5092846;28;20402;-73
2024/03/13 09:17:35;;;;;;;2.50;1.97;;;12.80;99.90;;;;;;5092554;28;20964;-71
2024/03/13 09:20:01;;;;;;;2.30;2.03;;;12.50;99.90;;;;;;5091328;28;20446;-73
2024/03/13 09:22:27;;;;;;;1.67;1.30;;;12.40;99.90;;;;;;5092643;28;20549;-72
2024/03/13 09:24:53;;;;;;;1.93;1.50;;;12.10;99.90;;;;;;5092488;28;20181;-72
2024/03/13 09:27:19;;;;;;;1.90;1.60;;;12.00;99.90;;;;;;5074668;28;20530;-73
2024/03/13 09:29:45;;;;;;;1.90;1.30;;;12.30;99.90;;;;;;5091808;28;20397;-73
2024/03/13 09:32:11;;;;;;;1.93;1.23;;;12.80;99.90;;;;;;5092517;28;20195;-73
2024/03/13 09:34:36;;;;;;;4.17;1.17;;;12.80;99.90;;;;;;5092840;28;20538;-72
2024/03/13 09:37:04;;;;;;;1.97;1.20;;;12.50;99.90;;;;;;5092745;28;20652;-72
2024/03/13 09:39:33;;;;;;;1.80;1.60;;;12.30;99.90;;;;;;5092847;28;20665;-73
2024/03/13 09:41:59;;;;;;;2.00;1.10;;;12.60;99.90;;;;;;5091231;28;20765;-72
2024/03/13 09:44:29;;;;;;;2.70;1.37;;;13.00;99.90;;;;;;5092008;28;20429;-73
2024/03/13 09:46:57;;;;;;;2.80;1.00;;;13.00;99.90;;;;;;5092507;28;20662;-73
2024/03/13 09:49:25;;;;;;;1.33;1.20;;;13.10;99.90;;;;;;5092121;28;20407;-72
2024/03/13 09:51:51;;;;;;;1.97;1.07;;;13.30;99.90;;;;;;5092379;28;20423;-72
2024/03/13 09:54:19;;;;;;;1.70;1.50;;;13.30;99.90;;;;;;5092335;28;20414;-72
2024/03/13 09:56:47;;;;;;;1.30;1.20;;;13.60;99.90;;;;;;5074017;28;20468;-71
2024/03/13 09:59:12;;;;;;;2.10;1.33;;;13.90;99.90;;;;;;5092410;28;20406;-73
2024/03/13 10:01:48;;;;;;;2.40;1.20;;;13.90;99.90;;;;;;5092123;28;20446;-72
2024/03/13 10:04:20;;;;;;;2.20;0.90;;;13.60;99.90;;;;;;5090570;28;20512;-71
2024/03/13 10:06:56;;;;;;;2.40;0.93;;;13.60;99.90;;;;;;5091001;28;20169;-73
2024/03/13 10:09:25;;;;;;;1.67;0.90;;;13.50;99.90;;;;;;5092993;28;20387;-74
2024/03/13 10:11:51;;;;;;;1.07;0.97;;;13.50;99.90;;;;;;5096034;28;20929;-73
2024/03/13 10:14:21;;;;;;;1.63;0.90;;;13.80;99.90;;;;;;5096350;28;20410;-72
2024/03/13 10:16:54;;;;;;;1.60;1.00;;;13.90;99.90;;;;;;5095450;28;20404;-71
2024/03/13 10:19:21;;;;;;;2.93;1.30;;;13.70;99.90;;;;;;5096310;28;20159;-71
2024/03/13 10:21:49;;;;;;;2.40;0.90;;;13.90;99.90;;;;;;5095564;28;20420;-71
2024/03/13 10:24:18;;;;;;;1.00;0.90;;;13.90;99.90;;;;;;5095698;28;20473;-72
2024/03/13 10:26:46;;;;;;;1.37;0.93;;;14.20;99.90;;;;;;5095672;28;20451;-72
2024/03/13 10:29:12;;;;;;;1.57;0.87;;;14.00;99.90;;;;;;5096262;28;20785;-71
2024/03/13 10:31:38;;;;;;;2.60;0.70;;;14.10;99.90;;;;;;5089144;28;20430;-74
2024/03/13 10:34:04;;;;;;;1.10;0.80;;;13.70;99.90;;;;;;5096314;28;20516;-72
2024/03/13 10:36:29;;;;;;;1.50;0.80;;;13.70;99.90;;;;;;5096421;28;20456;-70
2024/03/13 10:39:02;;;;;;;1.53;0.70;;;13.80;99.90;;;;;;5096078;28;20416;-72
2024/03/13 10:41:31;;;;;;;0.97;0.73;;;13.90;99.90;;;;;;5081625;28;20193;-71
2024/03/13 10:43:56;;;;;;;1.40;0.77;;;13.90;99.90;;;;;;5095359;28;20443;-72
2024/03/13 10:46:23;;;;;;;1.10;0.90;;;14.00;99.90;;;;;;5095591;28;20468;-72
2024/03/13 10:48:49;;;;;;;1.30;0.90;;;14.00;99.90;;;;;;5094953;28;20892;-71
2024/03/13 10:51:14;;;;;;;1.00;0.90;;;14.20;99.90;;;;;;5092459;28;20207;-70
2024/03/13 10:53:42;;;;;;;2.07;1.00;;;14.00;99.90;;;;;;5094918;28;20438;-72
2024/03/13 10:56:15;;;;;;;1.55;0.90;;;14.10;99.90;;;;;;5095407;28;20412;-71
2024/03/13 10:58:43;;;;;;;1.40;1.17;;;14.10;99.90;;;;;;5095778;28;20163;-71
2024/03/13 11:01:16;;;;;;;2.43;1.07;;;14.10;99.90;;;;;;5095043;28;20504;-71
2024/03/13 11:03:45;;;;;;;1.23;1.10;;;14.20;99.90;;;;;;5094999;28;20461;-73
2024/03/13 11:06:15;;;;;;;3.27;1.30;;;14.00;99.90;;;;;;5095404;28;20401;-72
2024/03/13 11:08:43;;;;;;;3.10;1.13;;;14.00;99.90;;;;;;5095493;28;20408;-73
2024/03/13 11:11:12;;;;;;;4.73;1.40;;;13.90;99.90;;;;;;5094881;28;20950;-71
2024/03/13 11:13:49;;;;;;;3.37;1.43;;;14.00;99.90;;;;;;5095036;28;20395;-72
2024/03/13 11:16:16;;;;;;;2.27;1.97;;;13.90;99.90;;;;;;5093842;28;20469;-73
2024/03/13 11:18:46;;;;;;;1.83;1.50;;;13.60;99.90;;;;;;5095530;28;20454;-73
2024/03/13 11:21:35;;;;;;;5.37;2.07;;;13.80;99.90;;;;;;5092002;28;20433;-72
2024/03/13 11:24:05;;;;;;;1.90;1.30;;;13.70;99.90;;;;;;5094772;28;20841;-72
2024/03/13 11:26:37;;;;;;;1.27;1.17;;;13.70;99.90;;;;;;5095045;28;20401;-71
2024/03/13 11:29:05;;;;;;;4.53;1.90;;;13.80;99.90;;;;;;5076863;28;20916;-72
2024/03/13 11:31:31;;;;;;;1.80;1.50;;;13.90;99.90;;;;;;5094744;28;20575;-72
2024/03/13 11:34:00;;;;;;;2.20;1.73;;;14.00;99.90;;;;;;5094897;28;20425;-72
2024/03/13 11:36:27;;;;;;;1.83;1.63;;;14.20;99.90;;;;;;5095046;28;20407;-71
2024/03/13 11:38:53;;;;;;;2.03;1.40;;;14.30;99.90;;;;;;5094539;28;20489;-71
2024/03/13 11:41:19;;;;;;;1.87;1.40;;;14.30;99.90;;;;;;5094441;28;20934;-72
2024/03/13 11:43:45;;;;;;;1.87;1.37;;;14.30;99.90;;;;;;5076100;28;20282;-71
2024/03/13 11:46:12;;;;;;;1.53;1.20;;;14.40;99.90;;;;;;5094172;28;20447;-72
2024/03/13 11:48:37;;;;;;;1.70;1.60;;;14.10;99.90;;;;;;5094438;28;20493;-72
2024/03/13 11:51:05;;;;;;;1.90;1.23;;;14.20;99.90;;;;;;5076328;28;20452;-71
2024/03/13 11:53:34;;;;;;;4.50;1.40;;;14.50;99.90;;;;;;5094823;28;20408;-71
2024/03/13 11:56:04;;;;;;;1.60;1.47;;;14.70;99.90;;;;;;5094377;28;20935;-71
2024/03/13 11:58:33;;;;;;;1.90;1.80;;;14.30;99.90;;;;;;5094044;28;20412;-71
2024/03/13 12:00:59;;;;;;;3.80;2.20;;;14.00;99.90;;;;;;5092890;28;20415;-72
2024/03/13 12:03:35;;;;;;;1.90;1.60;;;14.50;99.90;;;;;;5093984;28;20623;-72
2024/03/13 12:06:00;;;;;;;2.57;2.03;;;14.60;99.90;;;;;;5093803;28;20402;-72
2024/03/13 12:08:29;;;;;;;3.60;1.73;;;14.60;99.90;;;;;;5094093;28;20407;-72
2024/03/13 12:10:55;;;;;;;2.37;1.87;;;14.60;99.90;;;;;;5093860;28;20263;-71
2024/03/13 12:13:21;;;;;;;3.77;2.87;;;14.30;99.90;;;;;;5093952;28;20425;-72
2024/03/13 12:15:47;;;;;;;5.13;2.50;;;13.90;99.90;;;;;;5093999;28;20163;-72
2024/03/13 12:18:14;;;;;;;3.70;2.40;;;13.60;99.90;;;;;;5093630;28;20405;-72
2024/03/13 12:20:40;;;;;;;3.07;2.77;;;13.60;99.90;;;;;;5093346;28;20422;-71
2024/03/13 12:23:09;;;;;;;3.80;3.50;;;13.50;99.90;;;;;;5093545;28;20491;-73
2024/03/13 12:25:35;;;;;;;2.70;2.50;;;13.60;99.90;;;;;;5093788;28;20472;-70
2024/03/13 12:28:01;;;;;;;2.90;2.60;;;13.80;99.90;;;;;;5093432;28;20528;-73
2024/03/13 12:30:36;;;;;;;2.70;2.10;;;13.90;99.90;;;;;;5093787;28;20214;-72
2024/03/13 12:33:02;;;;;;;3.40;1.80;;;14.10;99.90;;;;;;5092995;28;20404;-71
2024/03/13 12:35:29;;;;;;;2.27;2.07;;;14.20;99.90;;;;;;5093150;28;20405;-72
2024/03/13 12:37:57;;;;;;;2.60;2.23;;;13.70;99.90;;;;;;5093092;28;20167;-72
2024/03/13 12:40:23;;;;;;;2.20;2.00;;;13.70;99.90;;;;;;5093182;28;20432;-73
2024/03/13 12:42:49;;;;;;;1.90;1.73;;;13.80;99.90;;;;;;5093776;28;20431;-72
2024/03/13 12:45:16;;;;;;;2.40;2.20;;;13.90;99.90;;;;;;5092480;28;20446;-70
2024/03/13 12:47:42;;;;;;;3.03;2.33;;;14.30;99.90;;;;;;5093061;28;20434;-70
2024/03/13 12:50:18;;;;;;;2.60;2.40;;;14.60;99.90;;;;;;5093285;28;20904;-71
2024/03/13 12:52:45;;;;;;;3.00;2.50;;;14.90;99.90;;;;;;5093197;28;20379;-72
2024/03/13 12:55:22;;;;;;;4.80;3.83;;;15.00;99.90;;;;;;5093640;28;20434;-71
2024/03/13 12:57:48;;;;;;;2.87;2.67;;;14.90;99.90;;;;;;5093035;28;20435;-71
2024/03/13 13:00:19;;;;;;;2.30;2.10;;;15.00;99.90;;;;;;5092741;28;20822;-70
2024/03/13 13:02:46;;;;;;;2.80;2.60;;;15.00;99.90;;;;;;5092866;28;20430;-71
2024/03/13 13:05:12;;;;;;;2.40;2.20;;;15.00;99.90;;;;;;5092745;28;20490;-71
2024/03/13 13:07:51;;;;;;;2.60;2.10;;;15.00;99.90;;;;;;5092957;28;20811;-71
2024/03/13 13:10:24;;;;;;;1.60;1.27;;;14.70;99.90;;;;;;5092540;28;20935;-71